sensor_id;sensor_type;location;lat;lon;timestamp;temperature;humidity
8269;DHT22;4174;48.304;16.364;2024-02-23T00:04:45;10.70;99.90
8269;DHT22;4174;48.304;16.364;2024-02-23T00:10:49;10.90;99.90
8269;DHT22;4174;48.304;16.364;2024-02-23T00:16:52;11.00;99.90
8269;DHT22;4174;48.304;16.364;2024-02-23T00:22:58;11.20;99.90
8269;DHT22;4174;48.304;16.364;2024-02-23T00:29:02;11.10;99.90
8269;DHT22;4174;48.304;16.364;2024-02-23T00:35:06;11.20;99.90
8269;DHT22;4174;48.304;16.364;2024-02-23T00:41:10;11.20;99.90
8269;DHT22;4174;48.304;16.364;2024-02-23T00:47:14;11.10;99.90
8269;DHT22;4174;48.304;16.364;2024-02-23T00:53:18;11.10;99.90
8269;DHT22;4174;48.304;16.364;2024-02-23T00:59:22;11.10;99.90
8269;DHT22;4174;48.304;16.364;2024-02-23T01:05:25;11.10;99.90
8269;DHT22;4174;48.304;16.364;2024-02-23T01:11:29;10.60;99.90
8269;DHT22;4174;48.304;16.364;2024-02-23T01:17:33;10.70;99.90
8269;DHT22;4174;48.304;16.364;2024-02-23T01:23:36;10.80;99.90
8269;DHT22;4174;48.304;16.364;2024-02-23T01:29:41;10.90;99.90
8269;DHT22;4174;48.304;16.364;2024-02-23T01:35:45;10.80;99.90
8269;DHT22;4174;48.304;16.364;2024-02-23T01:41:48;10.80;99.90
8269;DHT22;4174;48.304;16.364;2024-02-23T01:47:52;10.80;99.90
8269;DHT22;4174;48.304;16.364;2024-02-23T01:53:56;10.80;99.90
8269;DHT22;4174;48.304;16.364;2024-02-23T01:59:59;10.70;99.90
8269;DHT22;4174;48.304;16.364;2024-02-23T02:06:04;10.70;99.90
8269;DHT22;4174;48.304;16.364;2024-02-23T02:12:07;10.70;99.90
8269;DHT22;4174;48.304;16.364;2024-02-23T02:18:12;10.60;99.90
8269;DHT22;4174;48.304;16.364;2024-02-23T02:24:16;10.60;99.90
8269;DHT22;4174;48.304;16.364;2024-02-23T02:30:20;10.50;99.90
8269;DHT22;4174;48.304;16.364;2024-02-23T02:36:23;10.50;99.90
8269;DHT22;4174;48.304;16.364;2024-02-23T02:42:27;10.50;99.90
8269;DHT22;4174;48.304;16.364;2024-02-23T02:48:30;10.60;99.90
8269;DHT22;4174;48.304;16.364;2024-02-23T02:54:34;10.50;99.90
8269;DHT22;4174;48.304;16.364;2024-02-23T03:00:38;10.30;99.90
8269;DHT22;4174;48.304;16.364;2024-02-23T03:06:42;10.30;99.90
8269;DHT22;4174;48.304;16.364;2024-02-23T03:12:45;10.40;99.90
8269;DHT22;4174;48.304;16.364;2024-02-23T03:18:49;10.50;99.90
8269;DHT22;4174;48.304;16.364;2024-02-23T03:24:53;10.60;99.90
8269;DHT22;4174;48.304;16.364;2024-02-23T03:30:56;10.60;99.90
8269;DHT22;4174;48.304;16.364;2024-02-23T03:37:00;10.60;99.90
8269;DHT22;4174;48.304;16.364;2024-02-23T03:43:04;10.40;99.90
8269;DHT22;4174;48.304;16.364;2024-02-23T03:49:08;9.60;99.90
8269;DHT22;4174;48.304;16.364;2024-02-23T03:55:12;9.30;99.90
8269;DHT22;4174;48.304;16.364;2024-02-23T04:01:16;9.00;99.90
8269;DHT22;4174;48.304;16.364;2024-02-23T04:07:19;9.00;99.90
8269;DHT22;4174;48.304;16.364;2024-02-23T04:13:22;9.30;99.90
8269;DHT22;4174;48.304;16.364;2024-02-23T04:19:26;9.00;99.90
8269;DHT22;4174;48.304;16.364;2024-02-23T04:25:30;8.70;99.90
8269;DHT22;4174;48.304;16.364;2024-02-23T04:31:35;8.80;99.90
8269;DHT22;4174;48.304;16.364;2024-02-23T04:37:37;8.70;99.90
8269;DHT22;4174;48.304;16.364;2024-02-23T04:43:40;8.90;99.90
8269;DHT22;4174;48.304;16.364;2024-02-23T04:49:44;9.10;99.90
8269;DHT22;4174;48.304;16.364;2024-02-23T04:55:48;9.10;99.90
8269;DHT22;4174;48.304;16.364;2024-02-23T05:01:52;9.10;99.90
8269;DHT22;4174;48.304;16.364;2024-02-23T05:07:55;9.10;99.90
8269;DHT22;4174;48.304;16.364;2024-02-23T05:13:59;9.10;99.90
8269;DHT22;4174;48.304;16.364;2024-02-23T05:20:03;9.10;99.90
8269;DHT22;4174;48.304;16.364;2024-02-23T05:26:08;9.10;99.90
8269;DHT22;4174;48.304;16.364;2024-02-23T05:32:12;9.00;99.90
8269;DHT22;4174;48.304;16.364;2024-02-23T05:38:15;9.00;99.90
8269;DHT22;4174;48.304;16.364;2024-02-23T05:44:18;9.00;99.90
8269;DHT22;4174;48.304;16.364;2024-02-23T05:50:22;9.00;99.90
8269;DHT22;4174;48.304;16.364;2024-02-23T05:56:25;9.00;99.90
8269;DHT22;4174;48.304;16.364;2024-02-23T06:02:29;9.10;99.90
8269;DHT22;4174;48.304;16.364;2024-02-23T06:08:34;9.30;99.90
8269;DHT22;4174;48.304;16.364;2024-02-23T06:14:37;9.30;99.90
8269;DHT22;4174;48.304;16.364;2024-02-23T06:20:40;9.30;99.90
8269;DHT22;4174;48.304;16.364;2024-02-23T06:26:44;9.30;99.90
8269;DHT22;4174;48.304;16.364;2024-02-23T06:32:47;9.30;99.90
8269;DHT22;4174;48.304;16.364;2024-02-23T06:38:51;9.20;99.90
8269;DHT22;4174;48.304;16.364;2024-02-23T06:44:55;9.30;99.90
8269;DHT22;4174;48.304;16.364;2024-02-23T06:50:59;9.30;99.90
8269;DHT22;4174;48.304;16.364;2024-02-23T06:57:04;9.30;99.90
8269;DHT22;4174;48.304;16.364;2024-02-23T07:03:08;9.30;99.90
8269;DHT22;4174;48.304;16.364;2024-02-23T07:09:13;9.40;99.90
8269;DHT22;4174;48.304;16.364;2024-02-23T07:15:17;9.60;99.90
8269;DHT22;4174;48.304;16.364;2024-02-23T07:21:21;9.90;99.90
8269;DHT22;4174;48.304;16.364;2024-02-23T07:27:24;10.10;99.90
8269;DHT22;4174;48.304;16.364;2024-02-23T07:33:28;10.10;99.90
8269;DHT22;4174;48.304;16.364;2024-02-23T07:39:32;10.20;99.90
8269;DHT22;4174;48.304;16.364;2024-02-23T07:45:35;10.30;99.90
8269;DHT22;4174;48.304;16.364;2024-02-23T07:51:39;10.40;99.90
8269;DHT22;4174;48.304;16.364;2024-02-23T07:57:43;10.40;99.90
8269;DHT22;4174;48.304;16.364;2024-02-23T08:03:46;10.20;99.90
8269;DHT22;4174;48.304;16.364;2024-02-23T08:09:50;10.30;99.90
8269;DHT22;4174;48.304;16.364;2024-02-23T08:15:54;10.20;99.90
8269;DHT22;4174;48.304;16.364;2024-02-23T08:21:58;10.10;99.90
8269;DHT22;4174;48.304;16.364;2024-02-23T08:28:01;10.00;99.90
8269;DHT22;4174;48.304;16.364;2024-02-23T08:34:05;10.10;99.90
8269;DHT22;4174;48.304;16.364;2024-02-23T08:40:10;10.30;99.90
8269;DHT22;4174;48.304;16.364;2024-02-23T08:46:14;10.30;99.90
8269;DHT22;4174;48.304;16.364;2024-02-23T08:52:18;10.50;99.90
8269;DHT22;4174;48.304;16.364;2024-02-23T08:58:21;10.60;99.90
8269;DHT22;4174;48.304;16.364;2024-02-23T09:04:25;10.70;99.90
8269;DHT22;4174;48.304;16.364;2024-02-23T09:10:28;10.90;99.90
8269;DHT22;4174;48.304;16.364;2024-02-23T09:16:32;10.90;99.90
8269;DHT22;4174;48.304;16.364;2024-02-23T09:22:35;10.90;99.90
8269;DHT22;4174;48.304;16.364;2024-02-23T09:28:39;11.10;99.90
8269;DHT22;4174;48.304;16.364;2024-02-23T09:34:43;11.50;99.90
8269;DHT22;4174;48.304;16.364;2024-02-23T09:40:47;11.40;99.90
8269;DHT22;4174;48.304;16.364;2024-02-23T09:46:51;11.70;99.90
8269;DHT22;4174;48.304;16.364;2024-02-23T09:52:54;11.70;99.90
8269;DHT22;4174;48.304;16.364;2024-02-23T09:58:59;12.00;99.90
8269;DHT22;4174;48.304;16.364;2024-02-23T10:05:00;12.10;99.90
8269;DHT22;4174;48.304;16.364;2024-02-23T10:11:03;12.10;99.90
8269;DHT22;4174;48.304;16.364;2024-02-23T10:17:07;12.20;99.90
8269;DHT22;4174;48.304;16.364;2024-02-23T10:23:12;12.20;99.90
8269;DHT22;4174;48.304;16.364;2024-02-23T10:29:17;12.00;99.90
8269;DHT22;4174;48.304;16.364;2024-02-23T10:35:20;12.00;99.90
8269;DHT22;4174;48.304;16.364;2024-02-23T10:41:23;12.00;99.90
8269;DHT22;4174;48.304;16.364;2024-02-23T10:47:26;12.10;99.90
8269;DHT22;4174;48.304;16.364;2024-02-23T10:53:29;12.00;99.90
8269;DHT22;4174;48.304;16.364;2024-02-23T10:59:32;11.70;99.90
8269;DHT22;4174;48.304;16.364;2024-02-23T11:05:35;11.90;99.90
8269;DHT22;4174;48.304;16.364;2024-02-23T11:11:38;11.90;99.90
8269;DHT22;4174;48.304;16.364;2024-02-23T11:17:41;11.90;99.90
8269;DHT22;4174;48.304;16.364;2024-02-23T11:23:47;12.00;99.90
8269;DHT22;4174;48.304;16.364;2024-02-23T11:29:59;12.10;99.90
8269;DHT22;4174;48.304;16.364;2024-02-23T11:36:05;11.80;99.90
8269;DHT22;4174;48.304;16.364;2024-02-23T11:42:08;11.80;99.90
8269;DHT22;4174;48.304;16.364;2024-02-23T11:48:11;11.90;99.90
8269;DHT22;4174;48.304;16.364;2024-02-23T11:54:15;11.40;99.90
8269;DHT22;4174;48.304;16.364;2024-02-23T12:00:20;11.20;99.90
8269;DHT22;4174;48.304;16.364;2024-02-23T12:06:23;10.90;99.90
8269;DHT22;4174;48.304;16.364;2024-02-23T12:12:26;10.70;99.90
8269;DHT22;4174;48.304;16.364;2024-02-23T12:18:29;10.50;99.90
8269;DHT22;4174;48.304;16.364;2024-02-23T12:24:33;10.40;99.90
8269;DHT22;4174;48.304;16.364;2024-02-23T12:30:36;10.60;99.90
8269;DHT22;4174;48.304;16.364;2024-02-23T12:36:41;10.50;99.90
8269;DHT22;4174;48.304;16.364;2024-02-23T12:42:44;10.60;99.90
8269;DHT22;4174;48.304;16.364;2024-02-23T12:48:48;10.40;99.90
8269;DHT22;4174;48.304;16.364;2024-02-23T12:54:52;10.20;99.90
8269;DHT22;4174;48.304;16.364;2024-02-23T13:00:55;10.30;99.90
8269;DHT22;4174;48.304;16.364;2024-02-23T13:06:59;10.40;99.90
8269;DHT22;4174;48.304;16.364;2024-02-23T13:13:04;10.20;99.90
8269;DHT22;4174;48.304;16.364;2024-02-23T13:19:08;10.10;99.90
8269;DHT22;4174;48.304;16.364;2024-02-23T13:25:12;10.00;99.90
8269;DHT22;4174;48.304;16.364;2024-02-23T13:31:15;9.50;99.90
8269;DHT22;4174;48.304;16.364;2024-02-23T13:37:19;9.30;99.90
8269;DHT22;4174;48.304;16.364;2024-02-23T13:43:23;9.30;99.90
8269;DHT22;4174;48.304;16.364;2024-02-23T13:49:27;9.30;99.90
8269;DHT22;4174;48.304;16.364;2024-02-23T13:55:31;9.10;99.90
8269;DHT22;4174;48.304;16.364;2024-02-23T14:01:34;8.90;99.90
8269;DHT22;4174;48.304;16.364;2024-02-23T14:07:38;8.80;99.90
8269;DHT22;4174;48.304;16.364;2024-02-23T14:13:42;8.80;99.90
8269;DHT22;4174;48.304;16.364;2024-02-23T14:19:47;8.90;99.90
8269;DHT22;4174;48.304;16.364;2024-02-23T14:25:51;8.90;99.90
8269;DHT22;4174;48.304;16.364;2024-02-23T14:31:54;8.90;99.90
8269;DHT22;4174;48.304;16.364;2024-02-23T14:37:58;8.90;99.90
8269;DHT22;4174;48.304;16.364;2024-02-23T14:44:02;9.20;99.90
8269;DHT22;4174;48.304;16.364;2024-02-23T14:50:07;9.30;99.90
8269;DHT22;4174;48.304;16.364;2024-02-23T14:56:10;9.30;99.90
8269;DHT22;4174;48.304;16.364;2024-02-23T15:02:18;9.30;99.90
8269;DHT22;4174;48.304;16.364;2024-02-23T15:08:21;9.10;99.90
8269;DHT22;4174;48.304;16.364;2024-02-23T15:14:24;9.10;99.90
8269;DHT22;4174;48.304;16.364;2024-02-23T15:20:27;9.10;99.90
8269;DHT22;4174;48.304;16.364;2024-02-23T15:26:31;9.30;99.90
8269;DHT22;4174;48.304;16.364;2024-02-23T15:32:35;9.40;99.90
8269;DHT22;4174;48.304;16.364;2024-02-23T15:38:37;9.40;99.90
8269;DHT22;4174;48.304;16.364;2024-02-23T15:44:41;9.40;99.90
8269;DHT22;4174;48.304;16.364;2024-02-23T15:50:44;9.30;99.90
8269;DHT22;4174;48.304;16.364;2024-02-23T15:56:48;9.30;99.90
8269;DHT22;4174;48.304;16.364;2024-02-23T16:02:52;9.30;99.90
8269;DHT22;4174;48.304;16.364;2024-02-23T16:08:56;9.40;99.90
8269;DHT22;4174;48.304;16.364;2024-02-23T16:14:59;9.60;99.90
8269;DHT22;4174;48.304;16.364;2024-02-23T16:21:04;9.60;99.90
8269;DHT22;4174;48.304;16.364;2024-02-23T16:27:07;9.70;99.90
8269;DHT22;4174;48.304;16.364;2024-02-23T16:33:11;9.60;99.90
8269;DHT22;4174;48.304;16.364;2024-02-23T16:39:16;9.60;99.90
8269;DHT22;4174;48.304;16.364;2024-02-23T16:45:20;9.50;99.90
8269;DHT22;4174;48.304;16.364;2024-02-23T16:51:24;9.50;99.90
8269;DHT22;4174;48.304;16.364;2024-02-23T16:57:26;9.50;99.90
8269;DHT22;4174;48.304;16.364;2024-02-23T17:03:31;9.70;99.90
8269;DHT22;4174;48.304;16.364;2024-02-23T17:09:34;9.70;99.90
8269;DHT22;4174;48.304;16.364;2024-02-23T17:15:38;9.60;99.90
8269;DHT22;4174;48.304;16.364;2024-02-23T17:21:41;9.80;99.90
8269;DHT22;4174;48.304;16.364;2024-02-23T17:27:45;9.70;99.90
8269;DHT22;4174;48.304;16.364;2024-02-23T17:33:48;9.90;99.90
8269;DHT22;4174;48.304;16.364;2024-02-23T17:39:55;9.70;99.90
8269;DHT22;4174;48.304;16.364;2024-02-23T17:45:59;9.50;99.90
8269;DHT22;4174;48.304;16.364;2024-02-23T17:52:03;9.60;99.90
8269;DHT22;4174;48.304;16.364;2024-02-23T17:58:07;9.70;99.90
8269;DHT22;4174;48.304;16.364;2024-02-23T18:04:11;9.70;99.90
8269;DHT22;4174;48.304;16.364;2024-02-23T18:10:15;9.70;99.90
8269;DHT22;4174;48.304;16.364;2024-02-23T18:16:19;10.00;99.90
8269;DHT22;4174;48.304;16.364;2024-02-23T18:22:23;10.30;99.90
8269;DHT22;4174;48.304;16.364;2024-02-23T18:28:26;10.50;99.90
8269;DHT22;4174;48.304;16.364;2024-02-23T18:34:30;10.80;99.90
8269;DHT22;4174;48.304;16.364;2024-02-23T18:40:34;10.10;99.90
8269;DHT22;4174;48.304;16.364;2024-02-23T18:46:38;10.10;99.90
8269;DHT22;4174;48.304;16.364;2024-02-23T18:52:41;9.90;99.90
8269;DHT22;4174;48.304;16.364;2024-02-23T18:58:44;9.80;99.90
8269;DHT22;4174;48.304;16.364;2024-02-23T19:04:48;9.50;99.90
8269;DHT22;4174;48.304;16.364;2024-02-23T19:10:52;8.80;99.90
8269;DHT22;4174;48.304;16.364;2024-02-23T19:16:57;8.50;99.90
8269;DHT22;4174;48.304;16.364;2024-02-23T19:23:00;8.70;99.90
8269;DHT22;4174;48.304;16.364;2024-02-23T19:29:04;8.40;99.90
8269;DHT22;4174;48.304;16.364;2024-02-23T19:35:09;8.00;99.90
8269;DHT22;4174;48.304;16.364;2024-02-23T19:41:13;8.00;99.90
8269;DHT22;4174;48.304;16.364;2024-02-23T19:47:17;7.90;99.90
8269;DHT22;4174;48.304;16.364;2024-02-23T19:53:20;7.90;99.90
8269;DHT22;4174;48.304;16.364;2024-02-23T19:59:24;7.70;99.90
8269;DHT22;4174;48.304;16.364;2024-02-23T20:05:28;7.40;99.90
8269;DHT22;4174;48.304;16.364;2024-02-23T20:11:31;7.40;99.90
8269;DHT22;4174;48.304;16.364;2024-02-23T20:17:35;7.00;99.90
8269;DHT22;4174;48.304;16.364;2024-02-23T20:23:39;7.00;99.90
8269;DHT22;4174;48.304;16.364;2024-02-23T20:29:42;7.00;99.90
8269;DHT22;4174;48.304;16.364;2024-02-23T20:35:46;6.70;99.90
8269;DHT22;4174;48.304;16.364;2024-02-23T20:41:50;6.30;99.90
8269;DHT22;4174;48.304;16.364;2024-02-23T20:47:53;6.40;99.90
8269;DHT22;4174;48.304;16.364;2024-02-23T20:53:57;6.40;99.90
8269;DHT22;4174;48.304;16.364;2024-02-23T21:00:03;6.30;99.90
8269;DHT22;4174;48.304;16.364;2024-02-23T21:06:08;6.20;99.90
8269;DHT22;4174;48.304;16.364;2024-02-23T21:12:11;6.20;99.90
8269;DHT22;4174;48.304;16.364;2024-02-23T21:18:15;6.20;99.90
8269;DHT22;4174;48.304;16.364;2024-02-23T21:24:17;6.10;99.90
8269;DHT22;4174;48.304;16.364;2024-02-23T21:30:21;6.10;99.90
8269;DHT22;4174;48.304;16.364;2024-02-23T21:36:25;6.00;99.90
8269;DHT22;4174;48.304;16.364;2024-02-23T21:42:28;6.00;99.90
8269;DHT22;4174;48.304;16.364;2024-02-23T21:48:32;6.00;99.90
8269;DHT22;4174;48.304;16.364;2024-02-23T21:54:35;6.00;99.90
8269;DHT22;4174;48.304;16.364;2024-02-23T22:00:38;6.30;99.90
8269;DHT22;4174;48.304;16.364;2024-02-23T22:06:42;6.40;99.90
8269;DHT22;4174;48.304;16.364;2024-02-23T22:12:46;6.20;99.90
8269;DHT22;4174;48.304;16.364;2024-02-23T22:18:49;6.20;99.90
8269;DHT22;4174;48.304;16.364;2024-02-23T22:24:54;6.20;99.90
8269;DHT22;4174;48.304;16.364;2024-02-23T22:30:58;6.20;99.90
8269;DHT22;4174;48.304;16.364;2024-02-23T22:37:02;6.10;99.90
8269;DHT22;4174;48.304;16.364;2024-02-23T22:43:05;5.90;99.90
8269;DHT22;4174;48.304;16.364;2024-02-23T22:49:09;5.70;99.90
8269;DHT22;4174;48.304;16.364;2024-02-23T22:55:13;5.80;99.90
8269;DHT22;4174;48.304;16.364;2024-02-23T23:01:15;5.80;99.90
8269;DHT22;4174;48.304;16.364;2024-02-23T23:07:19;6.00;99.90
8269;DHT22;4174;48.304;16.364;2024-02-23T23:13:23;5.90;99.90
8269;DHT22;4174;48.304;16.364;2024-02-23T23:19:26;6.10;99.90
8269;DHT22;4174;48.304;16.364;2024-02-23T23:25:31;6.30;99.90
8269;DHT22;4174;48.304;16.364;2024-02-23T23:31:35;6.30;99.90
8269;DHT22;4174;48.304;16.364;2024-02-23T23:37:39;6.20;99.90
8269;DHT22;4174;48.304;16.364;2024-02-23T23:43:43;6.30;99.90
8269;DHT22;4174;48.304;16.364;2024-02-23T23:49:47;5.90;99.90
8269;DHT22;4174;48.304;16.364;2024-02-23T23:55:51;5.80;99.90
